Time;durP1;ratioP1;P1;durP2;ratioP2;P2;SDS_P1;SDS_P2;PMS_P1;PMS_P2;Temp;Humidity;BMP_temperature;BMP_pressure;BME280_temperature;BME280_humidity;BME280_pressure;Samples;Min_cycle;Max_cycle;Signal;HPM_P1;HPM_P2
2021/12/26 00:00:23;;;;;;;1.00;0.90;;;;;;;;;;4849174;29;34850;-66
2021/12/26 00:02:52;;;;;;;0.90;0.85;;;;;;;;;;4849510;29;32429;-67
2021/12/26 00:05:21;;;;;;;0.90;0.90;;;;;;;;;;4848492;29;32438;-66
2021/12/26 00:07:50;;;;;;;1.30;1.13;;;;;;;;;;4849320;29;32427;-66
2021/12/26 00:10:20;;;;;;;1.08;0.95;;;;;;;;;;4849502;29;32352;-66
2021/12/26 00:12:50;;;;;;;1.08;0.90;;;;;;;;;;4849059;29;32474;-67
2021/12/26 00:15:20;;;;;;;0.82;0.82;;;;;;;;;;4848569;29;32378;-68
2021/12/26 00:17:48;;;;;;;1.13;1.10;;;;;;;;;;4849204;29;32360;-67
2021/12/26 00:20:17;;;;;;;1.30;1.20;;;;;;;;;;4847032;29;32253;-66
2021/12/26 00:22:46;;;;;;;1.00;1.00;;;;;;;;;;4846590;29;35905;-67
2021/12/26 00:25:15;;;;;;;1.23;1.08;;;;;;;;;;4848057;29;32249;-68
2021/12/26 00:27:43;;;;;;;1.05;1.00;;;;;;;;;;4848239;29;32482;-67
2021/12/26 00:30:17;;;;;;;1.20;1.17;;;;;;;;;;4848243;29;32403;-68
2021/12/26 00:32:46;;;;;;;0.90;0.90;;;;;;;;;;4849277;29;32317;-68
2021/12/26 00:35:16;;;;;;;1.33;1.30;;;;;;;;;;4849633;29;32452;-67
2021/12/26 00:37:44;;;;;;;1.55;1.45;;;;;;;;;;4847914;29;32591;-68
2021/12/26 00:40:16;;;;;;;1.73;1.00;;;;;;;;;;4848917;29;32401;-68
2021/12/26 00:42:44;;;;;;;2.10;1.35;;;;;;;;;;4846548;29;32586;-68
2021/12/26 00:45:14;;;;;;;1.33;1.23;;;;;;;;;;4846006;29;34029;-68
2021/12/26 00:47:42;;;;;;;1.60;1.50;;;;;;;;;;4846002;29;32784;-68
2021/12/26 00:50:14;;;;;;;1.52;1.42;;;;;;;;;;4845610;29;32764;-68
2021/12/26 00:52:42;;;;;;;;;;;;;;;;;;4846452;29;32511;-68
2021/12/26 00:55:14;;;;;;;2.17;1.50;;;;;;;;;;4846158;29;32349;-68
2021/12/26 00:57:43;;;;;;;1.92;1.83;;;;;;;;;;4847570;29;32865;-68
2021/12/26 01:00:17;;;;;;;1.38;1.27;;;;;;;;;;4848049;29;32234;-67
2021/12/26 01:02:46;;;;;;;1.80;1.67;;;;;;;;;;4848875;29;32475;-68
2021/12/26 01:05:15;;;;;;;1.67;1.58;;;;;;;;;;4849691;29;32412;-68
2021/12/26 01:07:55;;;;;;;1.83;1.73;;;;;;;;;;4848403;29;35094;-68
2021/12/26 01:10:24;;;;;;;1.52;1.42;;;;;;;;;;4848933;29;32373;-68
2021/12/26 01:12:53;;;;;;;1.13;1.10;;;;;;;;;;4848374;29;32399;-67
2021/12/26 01:15:24;;;;;;;1.73;1.63;;;;;;;;;;4849070;29;32694;-68
2021/12/26 01:17:56;;;;;;;1.40;1.30;;;;;;;;;;4848739;29;31852;-68
2021/12/26 01:20:44;;;;;;;1.90;1.80;;;;;;;;;;4848927;29;32642;-68
2021/12/26 01:23:15;;;;;;;2.70;1.90;;;;;;;;;;4848722;29;32386;-69
2021/12/26 01:25:43;;;;;;;1.60;1.50;;;;;;;;;;4848954;29;32396;-66
2021/12/26 01:28:13;;;;;;;1.80;1.70;;;;;;;;;;4848952;29;32449;-67
2021/12/26 01:30:42;;;;;;;2.17;2.05;;;;;;;;;;4848177;29;34414;-67
2021/12/26 01:33:13;;;;;;;3.90;1.98;;;;;;;;;;4848785;29;32553;-67
2021/12/26 01:35:42;;;;;;;2.13;2.03;;;;;;;;;;4848255;29;32399;-67
2021/12/26 01:38:13;;;;;;;2.42;2.22;;;;;;;;;;4848166;29;32371;-68
2021/12/26 01:40:44;;;;;;;2.88;2.58;;;;;;;;;;4848899;29;32363;-67
2021/12/26 01:43:14;;;;;;;2.55;2.45;;;;;;;;;;4848668;29;32297;-67
2021/12/26 01:45:44;;;;;;;2.70;2.50;;;;;;;;;;4848085;29;32428;-68
2021/12/26 01:48:12;;;;;;;4.63;3.15;;;;;;;;;;4848463;29;32470;-67
2021/12/26 01:50:41;;;;;;;2.80;2.67;;;;;;;;;;4848669;29;32433;-67
2021/12/26 01:53:10;;;;;;;3.30;3.10;;;;;;;;;;4848320;29;33971;-67
2021/12/26 01:55:41;;;;;;;3.45;3.25;;;;;;;;;;4848103;29;32399;-66
2021/12/26 01:58:13;;;;;;;3.92;3.72;;;;;;;;;;4847966;29;32445;-66
2021/12/26 02:00:45;;;;;;;4.18;3.90;;;;;;;;;;4846858;29;32398;-66
2021/12/26 02:03:14;;;;;;;4.15;3.75;;;;;;;;;;4846850;29;35121;-66
2021/12/26 02:05:42;;;;;;;4.03;3.72;;;;;;;;;;4848160;29;32429;-67
2021/12/26 02:08:10;;;;;;;4.50;4.20;;;;;;;;;;4847905;29;32562;-67
2021/12/26 02:10:38;;;;;;;4.40;4.10;;;;;;;;;;4848209;29;32443;-68
2021/12/26 02:13:08;;;;;;;4.75;4.32;;;;;;;;;;4848072;29;32376;-69
2021/12/26 02:15:36;;;;;;;6.53;4.88;;;;;;;;;;4848041;29;34687;-68
2021/12/26 02:18:07;;;;;;;5.72;5.32;;;;;;;;;;4848168;29;32521;-67
2021/12/26 02:20:51;;;;;;;5.47;5.07;;;;;;;;;;4848400;29;32523;-67
2021/12/26 02:23:25;;;;;;;5.95;5.55;;;;;;;;;;4848243;29;32353;-66
2021/12/26 02:28:41;;;;;;;5.90;5.50;;;;;;;;;;4847100;29;32205;-66
2021/12/26 02:31:09;;;;;;;5.78;5.28;;;;;;;;;;4847507;29;32516;-67
2021/12/26 02:33:38;;;;;;;6.40;5.90;;;;;;;;;;4847639;29;32531;-67
2021/12/26 02:36:08;;;;;;;7.22;6.72;;;;;;;;;;4847704;29;32455;-67
2021/12/26 02:38:37;;;;;;;7.30;6.78;;;;;;;;;;4847779;29;35470;-66
2021/12/26 02:41:06;;;;;;;7.40;6.80;;;;;;;;;;4848248;29;32457;-66
2021/12/26 02:43:34;;;;;;;7.63;7.07;;;;;;;;;;4847944;29;32434;-67
2021/12/26 02:46:06;;;;;;;7.30;6.80;;;;;;;;;;4847332;29;32312;-66
2021/12/26 02:48:34;;;;;;;;;;;;;;;;;;4850923;29;34583;-67
2021/12/26 02:51:04;;;;;;;7.60;7.10;;;;;;;;;;4850190;29;32491;-68
2021/12/26 02:53:34;;;;;;;6.95;6.50;;;;;;;;;;4850552;29;32419;-68
2021/12/26 02:56:04;;;;;;;7.35;6.85;;;;;;;;;;4850511;29;32323;-67
2021/12/26 02:58:32;;;;;;;7.50;6.88;;;;;;;;;;4850268;29;32426;-68
2021/12/26 03:01:05;;;;;;;7.70;7.13;;;;;;;;;;4849811;29;34043;-67
2021/12/26 03:03:33;;;;;;;7.38;6.88;;;;;;;;;;4850428;29;32369;-67
2021/12/26 03:06:06;;;;;;;7.35;6.85;;;;;;;;;;4850450;29;32478;-65
2021/12/26 03:08:35;;;;;;;7.30;6.80;;;;;;;;;;4850772;29;31796;-68
2021/12/26 03:11:03;;;;;;;7.75;7.25;;;;;;;;;;4850469;29;34621;-67
2021/12/26 03:13:32;;;;;;;8.00;6.65;;;;;;;;;;4850213;29;32435;-68
2021/12/26 03:16:00;;;;;;;7.57;6.65;;;;;;;;;;4850589;29;32470;-67
2021/12/26 03:18:28;;;;;;;7.20;6.70;;;;;;;;;;4849831;29;32237;-67
2021/12/26 03:20:56;;;;;;;7.38;6.93;;;;;;;;;;4850286;29;32293;-67
2021/12/26 03:23:27;;;;;;;6.90;6.50;;;;;;;;;;4849975;29;34032;-67
2021/12/26 03:25:58;;;;;;;7.83;7.33;;;;;;;;;;4849677;29;32384;-67
2021/12/26 03:28:27;;;;;;;7.82;7.13;;;;;;;;;;4850480;29;32270;-68
2021/12/26 03:30:55;;;;;;;7.70;7.20;;;;;;;;;;4850317;29;32324;-66
2021/12/26 03:33:25;;;;;;;7.50;6.90;;;;;;;;;;4850283;29;34161;-67
2021/12/26 03:35:53;;;;;;;7.43;6.82;;;;;;;;;;4850367;29;32225;-68
2021/12/26 03:38:22;;;;;;;7.88;7.28;;;;;;;;;;4849974;29;32363;-68
2021/12/26 03:40:52;;;;;;;7.72;6.80;;;;;;;;;;4850040;29;32285;-68
2021/12/26 03:43:22;;;;;;;7.13;6.60;;;;;;;;;;4850371;29;32334;-67
2021/12/26 03:45:52;;;;;;;7.22;6.63;;;;;;;;;;4849967;29;33929;-67
2021/12/26 03:48:23;;;;;;;8.10;7.55;;;;;;;;;;4850010;29;32560;-67
2021/12/26 03:50:51;;;;;;;7.68;7.03;;;;;;;;;;4848070;29;32410;-68
2021/12/26 03:53:19;;;;;;;7.85;7.35;;;;;;;;;;4848783;29;32293;-69
2021/12/26 03:55:48;;;;;;;7.85;7.20;;;;;;;;;;4847967;29;35036;-69
2021/12/26 03:58:17;;;;;;;7.88;7.28;;;;;;;;;;4849815;29;32186;-68
2021/12/26 04:00:48;;;;;;;7.85;7.25;;;;;;;;;;4849339;29;32418;-70
2021/12/26 04:03:16;;;;;;;8.10;7.30;;;;;;;;;;4831185;29;32315;-67
2021/12/26 04:05:44;;;;;;;7.53;6.93;;;;;;;;;;4831309;29;32502;-67
2021/12/26 04:08:12;;;;;;;7.72;7.13;;;;;;;;;;4830944;29;34139;-68
2021/12/26 04:10:40;;;;;;;7.95;7.35;;;;;;;;;;4831070;29;32610;-68
2021/12/26 04:13:08;;;;;;;7.25;6.75;;;;;;;;;;4830819;29;32343;-68
2021/12/26 04:15:36;;;;;;;7.25;6.65;;;;;;;;;;4831319;29;32331;-69
2021/12/26 04:18:07;;;;;;;7.88;7.30;;;;;;;;;;4847359;29;35008;-68
2021/12/26 04:20:35;;;;;;;6.85;6.40;;;;;;;;;;4849787;29;32408;-69
2021/12/26 04:23:04;;;;;;;7.85;7.32;;;;;;;;;;4849372;29;32359;-67
2021/12/26 04:25:32;;;;;;;7.07;6.47;;;;;;;;;;4849258;29;32600;-68
2021/12/26 04:28:00;;;;;;;8.35;7.55;;;;;;;;;;4849612;29;32381;-68
2021/12/26 04:30:29;;;;;;;8.82;7.97;;;;;;;;;;4849674;29;33943;-69
2021/12/26 04:32:57;;;;;;;7.90;7.30;;;;;;;;;;4848969;29;32338;-68
2021/12/26 04:35:27;;;;;;;7.70;7.13;;;;;;;;;;4849390;29;32281;-68
2021/12/26 04:37:55;;;;;;;8.40;7.60;;;;;;;;;;4849239;29;32498;-67
2021/12/26 04:40:23;;;;;;;7.88;7.32;;;;;;;;;;4848951;29;34071;-70
2021/12/26 04:42:52;;;;;;;8.00;7.20;;;;;;;;;;4849202;29;32507;-70
2021/12/26 04:45:20;;;;;;;8.80;7.95;;;;;;;;;;4848980;29;32376;-68
2021/12/26 04:47:49;;;;;;;6.78;6.28;;;;;;;;;;4849251;29;32371;-70
2021/12/26 04:50:21;;;;;;;7.55;6.80;;;;;;;;;;4849407;29;32562;-67
2021/12/26 04:52:51;;;;;;;8.32;7.63;;;;;;;;;;4848717;29;35669;-67
2021/12/26 04:55:22;;;;;;;7.43;6.88;;;;;;;;;;4848827;29;32305;-67
2021/12/26 04:57:51;;;;;;;8.02;7.32;;;;;;;;;;4848904;29;32344;-68
2021/12/26 05:00:24;;;;;;;7.53;6.82;;;;;;;;;;4848361;29;32457;-70
2021/12/26 05:02:52;;;;;;;7.85;7.25;;;;;;;;;;4848811;29;33928;-67
2021/12/26 05:05:21;;;;;;;6.78;6.28;;;;;;;;;;4848477;29;32755;-67
2021/12/26 05:07:51;;;;;;;7.40;6.78;;;;;;;;;;4849274;29;32516;-68
2021/12/26 05:10:19;;;;;;;6.80;6.30;;;;;;;;;;4848345;29;32460;-67
2021/12/26 05:12:48;;;;;;;7.55;6.80;;;;;;;;;;4849125;29;32180;-68
2021/12/26 05:15:16;;;;;;;6.95;6.30;;;;;;;;;;4849038;29;35804;-68
2021/12/26 05:17:44;;;;;;;7.05;6.45;;;;;;;;;;4849259;29;32326;-67
2021/12/26 05:20:13;;;;;;;7.03;6.50;;;;;;;;;;4848052;29;32456;-69
2021/12/26 05:22:41;;;;;;;6.90;6.40;;;;;;;;;;4848155;29;32276;-68
2021/12/26 05:25:11;;;;;;;6.60;6.10;;;;;;;;;;4848153;29;35541;-69
2021/12/26 05:27:40;;;;;;;6.50;6.10;;;;;;;;;;4848133;29;32434;-68
2021/12/26 05:30:12;;;;;;;6.45;6.00;;;;;;;;;;4847552;29;32162;-68
2021/12/26 05:32:42;;;;;;;6.95;6.45;;;;;;;;;;4848718;29;32320;-70
2021/12/26 05:35:11;;;;;;;7.07;6.43;;;;;;;;;;4848917;29;32664;-68
2021/12/26 05:37:40;;;;;;;6.55;6.00;;;;;;;;;;4848475;29;35271;-69
2021/12/26 05:40:12;;;;;;;6.60;6.10;;;;;;;;;;4848197;29;32643;-68
2021/12/26 05:42:41;;;;;;;6.78;6.18;;;;;;;;;;4848921;29;32461;-68
2021/12/26 05:45:11;;;;;;;7.15;6.50;;;;;;;;;;4848705;29;32453;-69
2021/12/26 05:47:39;;;;;;;6.35;5.85;;;;;;;;;;4848420;29;33976;-68
2021/12/26 05:50:09;;;;;;;6.63;6.13;;;;;;;;;;4847708;29;32526;-69
2021/12/26 05:52:38;;;;;;;7.00;6.50;;;;;;;;;;4847445;29;34186;-67
2021/12/26 05:55:08;;;;;;;7.20;6.53;;;;;;;;;;4847345;29;32394;-69
2021/12/26 05:57:37;;;;;;;7.65;7.05;;;;;;;;;;4846062;29;32607;-69
2021/12/26 06:00:09;;;;;;;6.88;6.38;;;;;;;;;;4846545;29;34104;-69
2021/12/26 06:02:37;;;;;;;;;;;;;;;;;;4848090;29;32589;-70
2021/12/26 06:05:06;;;;;;;7.15;6.50;;;;;;;;;;4847092;29;32429;-69
2021/12/26 06:07:34;;;;;;;7.07;6.45;;;;;;;;;;4846890;29;32527;-66
2021/12/26 06:10:02;;;;;;;6.70;6.20;;;;;;;;;;4847114;29;34712;-68
2021/12/26 06:12:30;;;;;;;7.80;7.20;;;;;;;;;;4846881;29;32480;-68
2021/12/26 06:15:00;;;;;;;7.40;6.70;;;;;;;;;;4844876;29;32783;-69
2021/12/26 06:17:28;;;;;;;11.07;7.15;;;;;;;;;;4846634;29;32393;-68
2021/12/26 06:19:56;;;;;;;7.03;6.45;;;;;;;;;;4847576;29;32407;-68
2021/12/26 06:22:23;;;;;;;7.20;6.65;;;;;;;;;;4845567;29;33962;-69
2021/12/26 06:24:51;;;;;;;7.05;6.53;;;;;;;;;;4847820;29;32340;-67
2021/12/26 06:27:19;;;;;;;7.25;6.63;;;;;;;;;;4847061;29;32276;-68
2021/12/26 06:29:47;;;;;;;6.30;5.88;;;;;;;;;;4847786;29;32194;-69
2021/12/26 06:32:17;;;;;;;6.50;6.00;;;;;;;;;;4847688;29;34774;-67
2021/12/26 06:34:45;;;;;;;6.60;6.10;;;;;;;;;;4846553;29;32430;-67
2021/12/26 06:37:13;;;;;;;6.70;6.20;;;;;;;;;;4847051;29;32610;-70
2021/12/26 06:39:41;;;;;;;6.75;6.13;;;;;;;;;;4846519;29;32495;-64
2021/12/26 06:42:09;;;;;;;7.22;6.18;;;;;;;;;;4844756;29;32424;-66
2021/12/26 06:44:37;;;;;;;6.57;6.07;;;;;;;;;;4846418;29;35229;-66
2021/12/26 06:47:07;;;;;;;5.72;5.32;;;;;;;;;;4846767;29;32346;-67
2021/12/26 06:49:36;;;;;;;6.20;5.70;;;;;;;;;;4846694;29;32406;-67
2021/12/26 06:52:05;;;;;;;6.40;5.90;;;;;;;;;;4847386;29;32384;-67
2021/12/26 06:54:33;;;;;;;6.70;6.20;;;;;;;;;;4846277;29;34678;-67
2021/12/26 06:57:01;;;;;;;6.32;5.82;;;;;;;;;;4846895;29;32548;-69
2021/12/26 06:59:29;;;;;;;6.78;6.28;;;;;;;;;;4846269;29;32324;-68
2021/12/26 07:01:57;;;;;;;6.13;5.72;;;;;;;;;;4846663;29;32399;-67
2021/12/26 07:04:25;;;;;;;5.85;5.45;;;;;;;;;;4846694;29;32458;-67
2021/12/26 07:06:55;;;;;;;6.35;5.90;;;;;;;;;;4843895;29;34194;-68
2021/12/26 07:09:22;;;;;;;7.10;6.53;;;;;;;;;;4846484;29;32353;-67
2021/12/26 07:11:50;;;;;;;6.63;6.13;;;;;;;;;;4846773;29;32382;-68
2021/12/26 07:14:18;;;;;;;6.65;6.18;;;;;;;;;;4846344;29;32326;-67
2021/12/26 07:16:46;;;;;;;6.38;5.88;;;;;;;;;;4846908;29;34235;-67
2021/12/26 07:19:14;;;;;;;6.38;5.88;;;;;;;;;;4847116;29;32448;-67
2021/12/26 07:21:42;;;;;;;6.85;6.28;;;;;;;;;;4846235;29;32529;-68
2021/12/26 07:24:11;;;;;;;5.65;5.25;;;;;;;;;;4846155;29;32574;-67
2021/12/26 07:26:39;;;;;;;6.13;5.53;;;;;;;;;;4844785;29;32249;-67
2021/12/26 07:29:07;;;;;;;5.97;5.53;;;;;;;;;;4846053;29;35345;-67
2021/12/26 07:31:36;;;;;;;6.10;5.65;;;;;;;;;;4846470;29;32315;-68
2021/12/26 07:34:03;;;;;;;6.65;6.05;;;;;;;;;;4846853;29;32415;-67
2021/12/26 07:36:31;;;;;;;5.90;5.40;;;;;;;;;;4846858;29;32422;-69
2021/12/26 07:38:59;;;;;;;6.43;5.82;;;;;;;;;;4849345;29;34181;-69
2021/12/26 07:41:29;;;;;;;6.47;5.88;;;;;;;;;;4848984;29;32150;-69
2021/12/26 07:43:57;;;;;;;5.75;5.32;;;;;;;;;;4848703;29;32193;-68
2021/12/26 07:46:25;;;;;;;5.55;5.22;;;;;;;;;;4848947;29;32630;-69
2021/12/26 07:48:53;;;;;;;6.90;5.50;;;;;;;;;;4848984;29;32135;-69
2021/12/26 07:51:21;;;;;;;5.90;5.50;;;;;;;;;;4849368;29;34042;-67
2021/12/26 07:53:50;;;;;;;5.85;5.45;;;;;;;;;;4848830;29;32543;-70
2021/12/26 07:56:19;;;;;;;7.40;5.43;;;;;;;;;;4849679;29;32391;-69
2021/12/26 07:58:48;;;;;;;6.10;5.60;;;;;;;;;;4847521;29;32709;-67
2021/12/26 08:01:16;;;;;;;6.50;6.00;;;;;;;;;;4849324;29;35462;-67
2021/12/26 08:03:44;;;;;;;5.88;5.38;;;;;;;;;;4847988;29;32641;-67
2021/12/26 08:06:16;;;;;;;6.53;6.03;;;;;;;;;;4846298;29;32334;-68
2021/12/26 08:08:44;;;;;;;;;;;;;;;;;;4848857;29;32457;-68
2021/12/26 08:11:12;;;;;;;5.35;4.95;;;;;;;;;;4847796;29;32434;-68
2021/12/26 08:13:40;;;;;;;4.93;4.53;;;;;;;;;;4848603;29;33921;-67
2021/12/26 08:16:14;;;;;;;5.93;5.43;;;;;;;;;;4848688;29;31904;-68
2021/12/26 08:18:42;;;;;;;5.55;5.07;;;;;;;;;;4848366;29;32339;-70
2021/12/26 08:21:10;;;;;;;5.60;4.97;;;;;;;;;;4848786;29;32375;-65
2021/12/26 08:23:38;;;;;;;5.53;5.07;;;;;;;;;;4848230;29;34920;-67
2021/12/26 08:26:07;;;;;;;5.72;5.30;;;;;;;;;;4846120;29;32409;-66
2021/12/26 08:28:35;;;;;;;5.60;5.20;;;;;;;;;;4848681;29;32485;-66
2021/12/26 08:31:03;;;;;;;5.95;5.53;;;;;;;;;;4848426;29;32361;-67
2021/12/26 08:33:33;;;;;;;5.30;4.90;;;;;;;;;;4848385;29;32523;-68
2021/12/26 08:36:03;;;;;;;5.35;4.95;;;;;;;;;;4848138;29;33985;-66
2021/12/26 08:38:30;;;;;;;5.53;5.13;;;;;;;;;;4847819;29;32545;-67
2021/12/26 08:40:59;;;;;;;5.28;4.88;;;;;;;;;;4848251;29;32407;-68
2021/12/26 08:43:26;;;;;;;4.85;4.55;;;;;;;;;;4847475;29;32590;-69
2021/12/26 08:45:54;;;;;;;4.82;4.47;;;;;;;;;;4847151;29;35432;-69
2021/12/26 08:48:24;;;;;;;6.25;4.80;;;;;;;;;;4848631;29;32345;-69
2021/12/26 08:50:55;;;;;;;6.10;5.15;;;;;;;;;;4849154;29;32302;-69
2021/12/26 08:53:24;;;;;;;5.38;4.88;;;;;;;;;;4848875;29;32386;-69
2021/12/26 08:55:53;;;;;;;5.57;5.28;;;;;;;;;;4848616;29;32365;-67
2021/12/26 08:58:21;;;;;;;5.60;5.20;;;;;;;;;;4847930;29;34276;-68
2021/12/26 09:00:50;;;;;;;5.45;5.05;;;;;;;;;;4848120;29;32559;-66
2021/12/26 09:03:18;;;;;;;5.70;5.30;;;;;;;;;;4845923;29;32967;-65
2021/12/26 09:05:46;;;;;;;5.20;4.90;;;;;;;;;;4848293;29;32297;-66
2021/12/26 09:08:15;;;;;;;6.15;5.65;;;;;;;;;;4845634;29;33991;-67
2021/12/26 09:10:44;;;;;;;5.18;4.78;;;;;;;;;;4847042;29;32482;-67
2021/12/26 09:13:12;;;;;;;4.90;4.60;;;;;;;;;;4845220;29;32273;-68
2021/12/26 09:15:40;;;;;;;5.45;5.05;;;;;;;;;;4847917;29;32259;-68
2021/12/26 09:18:08;;;;;;;5.25;4.85;;;;;;;;;;4847749;29;32395;-72
2021/12/26 09:20:36;;;;;;;5.13;4.82;;;;;;;;;;4848011;29;34690;-68
2021/12/26 09:23:26;;;;;;;6.28;4.80;;;;;;;;;;4845672;29;32596;-68
2021/12/26 09:25:54;;;;;;;5.70;5.20;;;;;;;;;;4848020;29;32863;-67
2021/12/26 09:28:22;;;;;;;5.88;5.35;;;;;;;;;;4848372;29;32298;-67
2021/12/26 09:30:49;;;;;;;6.07;5.45;;;;;;;;;;4848030;29;33995;-70
2021/12/26 09:33:19;;;;;;;5.25;4.85;;;;;;;;;;4845551;29;32348;-69
2021/12/26 09:35:48;;;;;;;6.13;5.65;;;;;;;;;;4835582;29;32327;-68
2021/12/26 09:38:16;;;;;;;5.85;5.13;;;;;;;;;;4829587;29;32477;-68
2021/12/26 09:40:45;;;;;;;6.00;5.53;;;;;;;;;;4830142;29;32495;-67
2021/12/26 09:43:13;;;;;;;5.70;5.30;;;;;;;;;;4829728;29;33928;-67
2021/12/26 09:45:41;;;;;;;5.20;4.85;;;;;;;;;;4829563;29;32337;-68
2021/12/26 09:48:09;;;;;;;5.30;4.90;;;;;;;;;;4829803;29;32335;-67
2021/12/26 09:50:37;;;;;;;5.70;5.30;;;;;;;;;;4829602;29;32236;-66
2021/12/26 09:53:05;;;;;;;5.32;4.93;;;;;;;;;;4841403;29;34104;-68
2021/12/26 09:55:33;;;;;;;5.45;4.95;;;;;;;;;;4844663;29;32377;-67
2021/12/26 09:58:03;;;;;;;7.72;5.32;;;;;;;;;;4847396;29;33212;-66
2021/12/26 10:00:35;;;;;;;5.53;5.13;;;;;;;;;;4843233;29;32364;-64
2021/12/26 10:03:14;;;;;;;5.75;5.35;;;;;;;;;;4839214;29;32740;-65
2021/12/26 10:05:58;;;;;;;5.15;4.72;;;;;;;;;;4841639;29;34108;-68
2021/12/26 10:08:26;;;;;;;5.15;4.75;;;;;;;;;;4844115;29;32520;-67
2021/12/26 10:11:14;;;;;;;9.45;5.30;;;;;;;;;;4846699;29;32336;-66
2021/12/26 10:13:47;;;;;;;5.70;5.30;;;;;;;;;;4847377;29;32344;-69
2021/12/26 10:16:18;;;;;;;5.78;5.38;;;;;;;;;;4846365;29;35543;-66
2021/12/26 10:18:47;;;;;;;5.30;5.00;;;;;;;;;;4845354;29;32465;-66
2021/12/26 10:21:34;;;;;;;5.72;5.25;;;;;;;;;;4847464;29;32413;-66
2021/12/26 10:24:12;;;;;;;4.85;4.55;;;;;;;;;;4847849;29;32308;-66
2021/12/26 10:26:47;;;;;;;5.18;4.78;;;;;;;;;;4847999;29;32293;-72
2021/12/26 10:29:33;;;;;;;5.45;5.05;;;;;;;;;;4845476;29;32649;-71
2021/12/26 10:32:08;;;;;;;5.65;5.25;;;;;;;;;;4839151;29;32320;-70
2021/12/26 10:34:41;;;;;;;7.93;5.03;;;;;;;;;;4840578;29;32475;-71
2021/12/26 10:37:12;;;;;;;5.45;4.95;;;;;;;;;;4836264;29;32211;-70
2021/12/26 10:39:44;;;;;;;7.03;5.88;;;;;;;;;;4828949;29;35096;-70
2021/12/26 10:42:19;;;;;;;6.53;4.82;;;;;;;;;;4828996;29;32113;-71
2021/12/26 10:44:52;;;;;;;6.93;5.13;;;;;;;;;;4829529;29;32420;-68
2021/12/26 10:47:23;;;;;;;5.40;4.90;;;;;;;;;;4829075;29;32332;-68
2021/12/26 10:49:55;;;;;;;5.95;5.45;;;;;;;;;;4828848;29;32560;-69
2021/12/26 10:52:31;;;;;;;5.60;5.20;;;;;;;;;;4840860;29;32586;-69
2021/12/26 10:55:02;;;;;;;6.07;5.57;;;;;;;;;;4844020;29;33074;-70
2021/12/26 10:57:35;;;;;;;5.82;5.32;;;;;;;;;;4845071;29;32487;-71
2021/12/26 11:00:13;;;;;;;5.22;4.82;;;;;;;;;;4846261;29;32508;-68
2021/12/26 11:02:43;;;;;;;4.63;4.28;;;;;;;;;;4843937;29;35488;-72
2021/12/26 11:05:15;;;;;;;5.40;4.90;;;;;;;;;;4841449;29;32528;-71
2021/12/26 11:07:51;;;;;;;5.60;5.20;;;;;;;;;;4840748;29;32589;-70
2021/12/26 11:10:25;;;;;;;5.50;5.03;;;;;;;;;;4841216;29;32424;-69
2021/12/26 11:12:56;;;;;;;5.75;5.25;;;;;;;;;;4850360;29;32414;-68
2021/12/26 11:15:28;;;;;;;4.88;4.47;;;;;;;;;;4850222;29;32436;-68
2021/12/26 11:17:59;;;;;;;5.00;4.60;;;;;;;;;;4850050;29;32313;-69
2021/12/26 11:20:31;;;;;;;4.93;4.53;;;;;;;;;;4849919;29;32406;-70
2021/12/26 11:23:09;;;;;;;5.28;4.88;;;;;;;;;;4831260;29;32335;-71
2021/12/26 11:25:39;;;;;;;4.20;3.90;;;;;;;;;;4831165;29;34627;-69
2021/12/26 11:28:07;;;;;;;4.95;4.60;;;;;;;;;;4831184;29;32432;-70
2021/12/26 11:30:37;;;;;;;5.32;4.85;;;;;;;;;;4830626;29;32305;-70
2021/12/26 11:33:05;;;;;;;4.70;4.35;;;;;;;;;;4843741;29;32469;-71
2021/12/26 11:35:34;;;;;;;5.05;4.65;;;;;;;;;;4849062;29;32531;-71
2021/12/26 11:38:03;;;;;;;4.85;4.55;;;;;;;;;;4849564;29;32597;-70
2021/12/26 11:40:32;;;;;;;4.85;4.45;;;;;;;;;;4842159;29;32529;-70
2021/12/26 11:43:58;;;;;;;5.38;4.97;;;;;;;;;;4835632;29;32455;-70
2021/12/26 11:46:42;;;;;;;6.00;4.85;;;;;;;;;;4772164;29;32451;-73
2021/12/26 11:49:50;;;;;;;5.13;4.72;;;;;;;;;;4826902;29;34551;-70
2021/12/26 11:52:39;;;;;;;5.32;4.93;;;;;;;;;;4802992;29;32762;-71
2021/12/26 11:55:21;;;;;;;7.18;4.85;;;;;;;;;;4830411;29;32746;-69
2021/12/26 11:58:11;;;;;;;5.13;4.82;;;;;;;;;;4830859;29;32640;-70
2021/12/26 12:00:42;;;;;;;5.53;5.03;;;;;;;;;;4830487;29;32496;-70
2021/12/26 12:03:21;;;;;;;5.35;4.97;;;;;;;;;;4836396;29;32823;-69
2021/12/26 12:05:50;;;;;;;5.20;4.80;;;;;;;;;;4844579;29;32288;-72
2021/12/26 12:08:26;;;;;;;5.43;5.03;;;;;;;;;;4849555;29;32421;-69
2021/12/26 12:10:59;;;;;;;5.55;5.07;;;;;;;;;;4849441;29;32254;-69
2021/12/26 12:13:49;;;;;;;5.45;5.05;;;;;;;;;;4848542;29;34512;-68
2021/12/26 12:16:34;;;;;;;6.18;5.38;;;;;;;;;;4849149;29;32424;-69
2021/12/26 12:19:11;;;;;;;5.10;4.70;;;;;;;;;;4849413;29;32323;-71
2021/12/26 12:21:44;;;;;;;5.18;4.68;;;;;;;;;;4849513;29;32337;-70
2021/12/26 12:24:14;;;;;;;5.60;4.93;;;;;;;;;;4844196;29;32879;-70
2021/12/26 12:26:49;;;;;;;5.55;5.15;;;;;;;;;;4842932;29;32285;-69
2021/12/26 12:29:52;;;;;;;4.93;4.53;;;;;;;;;;4831887;29;32308;-70
2021/12/26 12:32:23;;;;;;;6.60;5.15;;;;;;;;;;4839537;29;32430;-71
2021/12/26 12:34:57;;;;;;;8.13;5.07;;;;;;;;;;4846741;29;32425;-70
2021/12/26 12:37:36;;;;;;;7.93;4.63;;;;;;;;;;4841425;29;34778;-69
2021/12/26 12:40:20;;;;;;;4.80;4.50;;;;;;;;;;4847444;29;32636;-70
2021/12/26 12:43:05;;;;;;;5.63;5.13;;;;;;;;;;4846428;29;32694;-71
2021/12/26 12:46:07;;;;;;;5.85;4.88;;;;;;;;;;4843972;29;32526;-72
2021/12/26 12:48:46;;;;;;;;;;;;;;;;;;4846218;29;34645;-72
2021/12/26 12:51:37;;;;;;;5.03;4.63;;;;;;;;;;4846864;29;32355;-70
2021/12/26 12:54:19;;;;;;;5.00;4.60;;;;;;;;;;4846237;29;32281;-69
2021/12/26 12:56:47;;;;;;;5.15;4.75;;;;;;;;;;4847954;29;32398;-73
2021/12/26 12:59:42;;;;;;;5.93;5.40;;;;;;;;;;4847607;29;32481;-70
2021/12/26 13:02:26;;;;;;;5.32;4.93;;;;;;;;;;4830588;29;34860;-73
2021/12/26 13:04:54;;;;;;;5.05;4.65;;;;;;;;;;4847452;29;32485;-70
2021/12/26 13:07:26;;;;;;;5.25;4.75;;;;;;;;;;4846420;29;32316;-74
2021/12/26 13:09:57;;;;;;;5.68;5.28;;;;;;;;;;4841092;29;32663;-72
2021/12/26 13:12:26;;;;;;;5.57;4.85;;;;;;;;;;4843511;29;35353;-71
2021/12/26 13:14:56;;;;;;;5.63;5.05;;;;;;;;;;4844280;29;32459;-71
2021/12/26 13:17:31;;;;;;;5.57;5.15;;;;;;;;;;4846347;29;32610;-71
2021/12/26 13:20:02;;;;;;;5.13;4.80;;;;;;;;;;4845636;29;32510;-71
2021/12/26 13:22:45;;;;;;;6.00;5.40;;;;;;;;;;4847938;29;32491;-72
2021/12/26 13:25:26;;;;;;;4.97;4.57;;;;;;;;;;4845134;29;34913;-70
2021/12/26 13:27:54;;;;;;;5.47;5.07;;;;;;;;;;4844713;29;33031;-69
2021/12/26 13:30:24;;;;;;;5.53;5.00;;;;;;;;;;4843457;29;32261;-71
2021/12/26 13:32:52;;;;;;;5.32;4.93;;;;;;;;;;4844084;29;32569;-70
2021/12/26 13:35:30;;;;;;;5.40;4.93;;;;;;;;;;4845365;29;34752;-72
2021/12/26 13:38:00;;;;;;;5.28;4.80;;;;;;;;;;4844658;29;32486;-72
2021/12/26 13:40:33;;;;;;;5.38;4.80;;;;;;;;;;4845002;29;32304;-70
2021/12/26 13:43:02;;;;;;;5.28;4.88;;;;;;;;;;4844990;29;32532;-70
2021/12/26 13:45:33;;;;;;;4.68;4.28;;;;;;;;;;4845418;29;32689;-69
2021/12/26 13:48:02;;;;;;;6.85;4.65;;;;;;;;;;4844488;29;34437;-72
2021/12/26 13:50:30;;;;;;;4.70;4.30;;;;;;;;;;4843219;29;32505;-70
2021/12/26 13:53:07;;;;;;;4.95;4.45;;;;;;;;;;4842921;29;32876;-70
2021/12/26 13:55:36;;;;;;;4.97;4.57;;;;;;;;;;4842830;29;32497;-71
2021/12/26 13:58:07;;;;;;;9.75;4.70;;;;;;;;;;4844012;29;34721;-73
2021/12/26 14:00:47;;;;;;;4.50;4.20;;;;;;;;;;4844789;29;32626;-72
2021/12/26 14:03:15;;;;;;;4.70;4.40;;;;;;;;;;4844457;29;32572;-72
2021/12/26 14:05:43;;;;;;;4.90;4.60;;;;;;;;;;4845037;29;32741;-70
2021/12/26 14:08:16;;;;;;;4.57;4.20;;;;;;;;;;4847598;29;32760;-70
2021/12/26 14:10:44;;;;;;;4.80;4.40;;;;;;;;;;4845922;29;34210;-71
2021/12/26 14:13:19;;;;;;;5.10;4.70;;;;;;;;;;4843906;29;32464;-73
2021/12/26 14:15:49;;;;;;;4.70;4.30;;;;;;;;;;4844478;29;32427;-73
2021/12/26 14:18:21;;;;;;;4.30;3.97;;;;;;;;;;4843911;29;32457;-75
2021/12/26 14:20:52;;;;;;;4.80;4.50;;;;;;;;;;4845232;29;33937;-72
2021/12/26 14:23:25;;;;;;;4.03;3.72;;;;;;;;;;4840613;29;32819;-73
2021/12/26 14:25:56;;;;;;;4.80;4.32;;;;;;;;;;4844418;29;32536;-74
2021/12/26 14:28:25;;;;;;;4.90;4.53;;;;;;;;;;4843105;29;33545;-71
2021/12/26 14:31:01;;;;;;;4.60;4.20;;;;;;;;;;4846200;29;32399;-72
2021/12/26 14:33:37;;;;;;;4.05;3.75;;;;;;;;;;4844477;29;35196;-74
2021/12/26 14:36:08;;;;;;;5.80;4.55;;;;;;;;;;4843888;29;32234;-73
2021/12/26 14:38:37;;;;;;;4.97;4.57;;;;;;;;;;4843163;29;32604;-73
2021/12/26 14:41:08;;;;;;;4.78;4.40;;;;;;;;;;4843986;29;32560;-72
2021/12/26 14:43:43;;;;;;;5.28;4.78;;;;;;;;;;4845562;29;34231;-70
2021/12/26 14:46:12;;;;;;;4.47;4.18;;;;;;;;;;4847393;29;32651;-70
2021/12/26 14:48:43;;;;;;;6.63;4.03;;;;;;;;;;4846948;29;32533;-71
2021/12/26 14:51:15;;;;;;;4.78;4.38;;;;;;;;;;4848412;29;32393;-69
2021/12/26 14:54:00;;;;;;;4.45;4.15;;;;;;;;;;4847988;29;32644;-69
2021/12/26 14:56:42;;;;;;;4.53;4.20;;;;;;;;;;4846988;29;34299;-72
2021/12/26 14:59:23;;;;;;;4.93;4.43;;;;;;;;;;4847028;29;32651;-70
2021/12/26 15:01:51;;;;;;;7.68;4.57;;;;;;;;;;4845330;29;32402;-70
2021/12/26 15:04:19;;;;;;;5.03;4.63;;;;;;;;;;4845159;29;32636;-69
2021/12/26 15:06:54;;;;;;;4.15;3.75;;;;;;;;;;4847508;29;35715;-70
2021/12/26 15:09:49;;;;;;;4.85;4.55;;;;;;;;;;4847042;29;32332;-71
2021/12/26 15:12:28;;;;;;;4.82;4.43;;;;;;;;;;4847601;29;32370;-72